createdAt,value
2023-03-27T00:01:30.936Z,49.57
2023-03-27T00:03:33.764Z,48.75
2023-03-27T00:05:36.060Z,49.03
2023-03-27T00:07:41.788Z,49.29
2023-03-27T00:09:44.541Z,49.01
2023-03-27T00:11:46.988Z,49.86
2023-03-27T00:13:51.275Z,49.67
2023-03-27T00:15:55.242Z,49.42
2023-03-27T00:17:58.998Z,49.44
2023-03-27T00:20:01.339Z,48.77
2023-03-27T00:22:04.003Z,49.63
2023-03-27T00:24:07.145Z,49.27
2023-03-27T00:26:09.330Z,48.90
2023-03-27T00:28:11.598Z,48.68
2023-03-27T00:30:14.354Z,49.96
2023-03-27T00:32:16.772Z,49.68
2023-03-27T00:34:18.939Z,49.58
2023-03-27T00:36:22.149Z,50.13
2023-03-27T00:38:24.655Z,49.48
2023-03-27T00:40:27.405Z,49.47
2023-03-27T00:42:30.717Z,50.64
2023-03-27T00:44:34.684Z,50.26
2023-03-27T00:46:41.867Z,49.60
2023-03-27T00:48:48.561Z,49.70
2023-03-27T00:50:51.881Z,49.67
2023-03-27T00:52:59.916Z,50.40
2023-03-27T00:55:07.894Z,50.39
2023-03-27T00:57:14.632Z,50.35
2023-03-27T00:59:20.222Z,50.43
2023-03-27T01:01:26.490Z,50.93
2023-03-27T01:03:32.630Z,50.79
2023-03-27T01:05:36.500Z,50.75
2023-03-27T01:07:40.854Z,50.11
2023-03-27T01:10:05.508Z,50.28
2023-03-27T01:12:13.965Z,49.90
2023-03-27T01:14:24.541Z,50.60
2023-03-27T01:16:34.005Z,50.60
2023-03-27T01:18:38.974Z,50.52
2023-03-27T01:20:45.822Z,50.81
2023-03-27T01:22:54.429Z,51.03
2023-03-27T01:24:57.487Z,50.65
2023-03-27T01:27:04.093Z,50.78
2023-03-27T01:29:08.044Z,50.60
2023-03-27T01:31:16.823Z,50.24
2023-03-27T01:33:26.768Z,50.46
2023-03-27T01:35:32.717Z,50.20
2023-03-27T01:37:50.623Z,50.47
2023-03-27T01:39:57.484Z,51.28
2023-03-27T01:42:06.532Z,51.36
2023-03-27T01:44:17.405Z,50.99
2023-03-27T01:46:23.491Z,51.73
2023-03-27T01:48:33.003Z,51.51
2023-03-27T01:50:39.613Z,51.79
2023-03-27T01:52:47.014Z,51.80
2023-03-27T01:54:58.338Z,52.05
2023-03-27T01:57:10.509Z,52.46
2023-03-27T01:59:17.563Z,52.60
2023-03-27T02:01:24.457Z,52.72
2023-03-27T02:03:33.970Z,52.80
2023-03-27T02:05:39.015Z,53.09
2023-03-27T02:07:49.057Z,53.50
2023-03-27T02:09:56.858Z,53.04
2023-03-27T02:12:03.410Z,53.28
2023-03-27T02:14:11.858Z,53.73
2023-03-27T02:16:19.053Z,53.24
2023-03-27T02:18:29.653Z,53.14
2023-03-27T02:20:34.504Z,52.79
2023-03-27T02:22:39.211Z,53.17
2023-03-27T02:24:43.638Z,53.60
2023-03-27T02:26:50.596Z,53.36
2023-03-27T02:28:54.658Z,53.21
2023-03-27T02:31:06.309Z,53.76
2023-03-27T02:33:30.370Z,53.59
2023-03-27T02:35:38.800Z,52.92
2023-03-27T02:37:47.418Z,53.00
2023-03-27T02:39:50.448Z,52.81
2023-03-27T02:42:02.110Z,53.63
2023-03-27T02:44:12.469Z,52.99
2023-03-27T02:46:18.147Z,53.06
2023-03-27T02:48:26.613Z,53.12
2023-03-27T02:50:36.536Z,53.16
2023-03-27T02:52:44.506Z,53.04
2023-03-27T02:54:54.055Z,53.33
2023-03-27T02:57:01.719Z,53.17
2023-03-27T02:59:10.500Z,53.16
2023-03-27T03:01:16.922Z,52.36
2023-03-27T03:03:28.295Z,52.36
2023-03-27T03:05:30.477Z,51.94
2023-03-27T03:07:34.867Z,52.14
2023-03-27T03:09:40.366Z,52.52
2023-03-27T03:11:48.681Z,52.23
2023-03-27T03:13:50.785Z,52.27
2023-03-27T03:15:52.997Z,52.72
2023-03-27T03:17:55.336Z,53.01
2023-03-27T03:19:57.527Z,52.86
2023-03-27T03:22:01.344Z,52.84
2023-03-27T03:24:03.803Z,52.95
2023-03-27T03:26:07.391Z,52.61
2023-03-27T03:28:10.804Z,53.13
2023-03-27T03:30:17.290Z,53.33
2023-03-27T03:32:19.850Z,53.30
2023-03-27T03:34:22.756Z,53.23
2023-03-27T03:36:24.943Z,52.88
2023-03-27T03:38:29.849Z,53.26
2023-03-27T03:40:40.039Z,53.35
2023-03-27T03:42:46.949Z,53.07
2023-03-27T03:44:49.333Z,53.36
2023-03-27T03:46:51.452Z,53.25
2023-03-27T03:48:53.821Z,53.12
2023-03-27T03:50:56.310Z,53.41
2023-03-27T03:52:58.779Z,52.48
2023-03-27T03:55:00.965Z,53.39
2023-03-27T03:57:03.504Z,53.40
2023-03-27T03:59:05.806Z,52.94
2023-03-27T04:01:09.287Z,52.97
2023-03-27T04:03:11.530Z,52.76
2023-03-27T04:05:13.748Z,53.18
2023-03-27T04:07:17.957Z,53.53
2023-03-27T04:09:20.104Z,53.05
2023-03-27T04:11:22.450Z,52.94
2023-03-27T04:13:24.803Z,52.97
2023-03-27T04:15:27.731Z,52.88
2023-03-27T04:17:30.215Z,52.39
2023-03-27T04:19:32.524Z,52.28
2023-03-27T04:21:34.698Z,52.77
2023-03-27T04:23:36.906Z,52.74
2023-03-27T04:25:40.458Z,52.92
2023-03-27T04:27:43.734Z,52.49
2023-03-27T04:29:47.742Z,52.64
2023-03-27T04:31:49.869Z,53.10
2023-03-27T04:33:52.626Z,53.48
2023-03-27T04:36:05.521Z,52.63
2023-03-27T04:38:09.783Z,52.70
2023-03-27T04:40:14.455Z,53.27
2023-03-27T04:42:16.634Z,53.48
2023-03-27T04:44:19.145Z,53.50
2023-03-27T04:46:21.400Z,53.54
2023-03-27T04:48:23.562Z,53.15
2023-03-27T04:50:25.884Z,53.51
2023-03-27T04:52:29.902Z,53.77
2023-03-27T04:54:32.039Z,52.91
2023-03-27T04:56:35.321Z,53.30
2023-03-27T04:58:37.964Z,53.47
2023-03-27T05:00:40.802Z,53.23
2023-03-27T05:02:43.269Z,53.55
2023-03-27T05:04:45.971Z,53.28
2023-03-27T05:06:48.369Z,52.93
2023-03-27T05:08:51.485Z,53.22
2023-03-27T05:10:53.761Z,52.87
2023-03-27T05:12:58.319Z,53.19
2023-03-27T05:15:04.220Z,53.20
2023-03-27T05:17:07.096Z,53.28
2023-03-27T05:19:09.314Z,53.34
2023-03-27T05:21:12.578Z,53.42
2023-03-27T05:23:14.755Z,53.67
2023-03-27T05:25:17.391Z,54.02
2023-03-27T05:27:19.698Z,53.39
2023-03-27T05:29:21.980Z,53.41
2023-03-27T05:31:25.222Z,53.30
2023-03-27T05:33:27.372Z,53.57
2023-03-27T05:35:29.987Z,53.26
2023-03-27T05:37:32.123Z,53.62
2023-03-27T05:39:36.958Z,53.68
2023-03-27T05:41:39.423Z,53.99
2023-03-27T05:43:41.985Z,53.90
2023-03-27T05:45:44.850Z,53.91
2023-03-27T05:47:52.195Z,53.97
2023-03-27T05:49:54.448Z,53.94
2023-03-27T05:51:57.175Z,54.02
2023-03-27T05:53:59.407Z,54.04
2023-03-27T05:56:03.265Z,54.11
2023-03-27T05:58:10.174Z,54.09
2023-03-27T06:00:16.120Z,53.97
2023-03-27T06:02:21.085Z,54.22
2023-03-27T06:04:23.737Z,53.88
2023-03-27T06:06:27.082Z,54.47
2023-03-27T06:08:30.032Z,54.67
2023-03-27T06:10:34.488Z,54.63
2023-03-27T06:12:38.125Z,54.32
2023-03-27T06:14:40.210Z,54.09
2023-03-27T06:16:43.083Z,53.74
2023-03-27T06:18:45.340Z,53.46
2023-03-27T06:20:47.433Z,53.82
2023-03-27T06:22:52.075Z,54.12
2023-03-27T06:24:54.336Z,54.08
2023-03-27T06:26:56.444Z,54.08
2023-03-27T06:28:58.805Z,54.01
2023-03-27T06:31:01.017Z,53.98
2023-03-27T06:33:03.769Z,54.35
2023-03-27T06:35:07.937Z,54.83
2023-03-27T06:37:10.610Z,54.46
2023-03-27T06:39:12.902Z,54.90
2023-03-27T06:41:15.115Z,54.16
2023-03-27T06:43:19.283Z,54.57
2023-03-27T06:45:23.376Z,54.47
2023-03-27T06:47:25.634Z,54.46
2023-03-27T06:49:27.928Z,54.61
2023-03-27T06:51:30.174Z,54.74
2023-03-27T06:53:35.954Z,54.72
2023-03-27T06:55:40.968Z,54.83
2023-03-27T06:57:45.367Z,54.65
2023-03-27T06:59:47.889Z,54.98
2023-03-27T07:01:52.708Z,54.65
2023-03-27T07:03:54.968Z,54.93
2023-03-27T07:05:57.608Z,54.60
2023-03-27T07:08:05.440Z,54.08
2023-03-27T07:10:17.908Z,54.31
2023-03-27T07:12:20.058Z,54.13
2023-03-27T07:14:22.609Z,54.22
2023-03-27T07:16:25.279Z,54.13
2023-03-27T07:18:27.669Z,54.38
2023-03-27T07:20:31.709Z,54.26
2023-03-27T07:22:34.138Z,53.92
2023-03-27T07:24:36.394Z,53.68
2023-03-27T07:26:38.672Z,53.84
2023-03-27T07:28:40.927Z,53.68
2023-03-27T07:30:43.573Z,54.24
2023-03-27T07:32:47.334Z,53.51
2023-03-27T07:34:49.668Z,53.25
2023-03-27T07:36:51.830Z,53.21
2023-03-27T07:38:53.962Z,53.32
2023-03-27T07:40:58.150Z,53.56
2023-03-27T07:43:00.532Z,53.66
2023-03-27T07:45:04.543Z,53.17
2023-03-27T07:47:07.266Z,52.91
2023-03-27T07:49:09.817Z,53.19
2023-03-27T07:51:14.091Z,52.62
2023-03-27T07:53:34.184Z,52.81
2023-03-27T07:55:38.178Z,52.17
2023-03-27T07:59:49.874Z,52.28
2023-03-27T08:01:52.068Z,52.71
2023-03-27T08:03:54.608Z,52.13
2023-03-27T08:05:59.200Z,51.64
2023-03-27T08:08:01.696Z,51.64
2023-03-27T08:10:06.655Z,51.50
2023-03-27T08:12:08.888Z,50.20
2023-03-27T08:14:11.118Z,50.72
2023-03-27T08:16:17.818Z,50.20
2023-03-27T08:18:20.182Z,50.51
2023-03-27T08:20:23.903Z,50.06
2023-03-27T08:22:26.389Z,49.96
2023-03-27T08:24:29.031Z,50.54
2023-03-27T08:26:32.745Z,50.26
2023-03-27T08:28:37.369Z,50.04
2023-03-27T08:30:39.638Z,50.67
2023-03-27T08:32:44.269Z,50.25
2023-03-27T08:34:46.933Z,50.30
2023-03-27T08:36:49.135Z,50.05
2023-03-27T08:38:51.795Z,50.74
2023-03-27T08:40:59.420Z,50.26
2023-03-27T08:43:07.577Z,50.21
2023-03-27T08:45:21.189Z,49.79
2023-03-27T08:47:29.911Z,49.26
2023-03-27T08:49:36.863Z,48.15
2023-03-27T08:51:45.490Z,48.04
2023-03-27T08:53:54.155Z,46.77
2023-03-27T08:55:56.811Z,46.25
2023-03-27T08:57:59.454Z,46.09
2023-03-27T09:00:02.844Z,46.56
2023-03-27T09:02:12.026Z,45.95
2023-03-27T09:04:21.537Z,46.25
2023-03-27T09:06:37.189Z,46.22
2023-03-27T09:08:43.078Z,46.87
2023-03-27T09:10:49.903Z,47.19
2023-03-27T09:12:58.777Z,46.89
2023-03-27T09:15:23.394Z,47.37
2023-03-27T09:17:33.079Z,47.06
2023-03-27T09:19:45.974Z,46.75
2023-03-27T09:21:58.166Z,46.38
2023-03-27T09:24:02.594Z,45.61
2023-03-27T09:26:20.178Z,45.69
2023-03-27T09:28:26.413Z,45.54
2023-03-27T09:30:32.036Z,45.61
2023-03-27T09:32:35.218Z,45.65
2023-03-27T09:34:38.016Z,44.43
2023-03-27T09:36:42.082Z,44.63
2023-03-27T09:38:50.959Z,44.17
2023-03-27T09:40:57.541Z,43.98
2023-03-27T09:43:09.882Z,43.78
2023-03-27T09:45:13.960Z,43.90
2023-03-27T09:47:33.899Z,43.23
2023-03-27T09:49:39.127Z,43.58
2023-03-27T09:51:47.018Z,42.43
2023-03-27T09:53:56.268Z,41.26
2023-03-27T09:56:04.149Z,41.80
2023-03-27T09:58:23.989Z,42.18
2023-03-27T10:00:31.499Z,40.84
2023-03-27T10:02:33.932Z,40.19
2023-03-27T10:04:37.025Z,39.99
2023-03-27T10:06:44.230Z,39.71
2023-03-27T10:08:50.739Z,39.79
2023-03-27T10:10:58.225Z,39.49
2023-03-27T10:13:01.573Z,39.36
2023-03-27T10:15:07.302Z,39.57
2023-03-27T10:17:15.946Z,38.52
2023-03-27T10:19:24.226Z,38.58
2023-03-27T10:21:32.055Z,38.74
2023-03-27T10:23:40.942Z,37.91
2023-03-27T10:25:51.678Z,37.10
2023-03-27T10:27:55.193Z,36.81
2023-03-27T10:29:58.176Z,36.38
2023-03-27T10:32:02.399Z,36.71
2023-03-27T10:34:07.674Z,35.98
2023-03-27T10:36:14.811Z,33.32
2023-03-27T10:38:18.888Z,32.84
2023-03-27T10:40:26.443Z,33.58
2023-03-27T10:42:32.966Z,33.33
2023-03-27T10:44:37.994Z,32.65
2023-03-27T10:46:41.375Z,31.09
2023-03-27T10:48:49.904Z,31.30
2023-03-27T10:50:57.811Z,31.86
2023-03-27T10:53:07.650Z,32.39
2023-03-27T10:55:13.351Z,31.81
2023-03-27T10:57:21.522Z,32.17
2023-03-27T10:59:41.135Z,31.01
2023-03-27T11:01:52.731Z,32.07
2023-03-27T11:04:03.681Z,30.50
2023-03-27T11:06:13.169Z,31.56
2023-03-27T11:08:21.925Z,30.66
2023-03-27T11:10:31.856Z,31.36
2023-03-27T11:12:38.253Z,30.43
2023-03-27T11:14:46.601Z,29.05
2023-03-27T11:16:56.821Z,29.38
2023-03-27T11:19:03.810Z,28.97
2023-03-27T11:21:13.039Z,28.67
2023-03-27T11:23:19.054Z,28.99
2023-03-27T11:25:25.802Z,27.42
2023-03-27T11:27:34.689Z,28.09
2023-03-27T11:29:44.537Z,29.06
2023-03-27T11:31:51.462Z,27.49
2023-03-27T11:34:00.916Z,27.96
2023-03-27T11:36:10.309Z,28.16
2023-03-27T11:38:23.277Z,28.92
2023-03-27T11:40:31.079Z,28.37
2023-03-27T11:42:39.599Z,27.71
2023-03-27T11:44:42.989Z,28.37
2023-03-27T11:46:52.395Z,28.00
2023-03-27T11:49:01.206Z,27.86
2023-03-27T11:51:09.119Z,28.92
2023-03-27T11:53:16.956Z,27.94
2023-03-27T11:55:25.111Z,27.44
2023-03-27T11:57:27.761Z,28.20
2023-03-27T11:59:33.466Z,27.03
2023-03-27T12:01:44.903Z,27.14
2023-03-27T12:04:09.482Z,26.80
2023-03-27T12:06:22.916Z,27.25
2023-03-27T12:08:29.529Z,26.81
2023-03-27T12:10:35.307Z,26.94
2023-03-27T12:12:41.790Z,25.35
2023-03-27T12:14:48.556Z,25.59
2023-03-27T12:16:55.102Z,25.69
2023-03-27T12:19:08.128Z,25.31
2023-03-27T12:21:24.180Z,25.88
2023-03-27T12:23:32.527Z,27.10
2023-03-27T12:25:48.717Z,25.87
2023-03-27T12:27:54.329Z,25.80
2023-03-27T12:30:02.602Z,26.22
2023-03-27T12:32:25.866Z,24.99
2023-03-27T12:34:57.287Z,25.58
2023-03-27T12:37:01.964Z,25.03
2023-03-27T12:39:18.741Z,24.85
2023-03-27T12:41:24.480Z,24.33
2023-03-27T12:43:29.638Z,23.89
2023-03-27T12:45:33.180Z,24.13
2023-03-27T12:47:38.238Z,24.52
2023-03-27T12:49:56.704Z,23.90
2023-03-27T12:52:02.858Z,25.10
2023-03-27T12:54:32.420Z,24.56
2023-03-27T12:56:37.424Z,24.87
2023-03-27T12:58:41.212Z,24.75
2023-03-27T13:00:53.946Z,24.86
2023-03-27T13:03:19.645Z,25.11
2023-03-27T13:05:33.598Z,25.29
2023-03-27T13:08:07.311Z,25.16
2023-03-27T13:10:21.071Z,25.56
2023-03-27T13:12:43.470Z,26.02
2023-03-27T13:15:01.123Z,26.07
2023-03-27T13:17:32.946Z,25.66
2023-03-27T13:19:46.069Z,25.33
2023-03-27T13:22:13.861Z,25.16
2023-03-27T13:24:43.886Z,25.17
2023-03-27T13:27:21.767Z,25.69
2023-03-27T13:29:54.150Z,25.93
2023-03-27T13:32:09.421Z,25.74
2023-03-27T13:34:37.438Z,25.93
2023-03-27T13:36:48.105Z,25.46
2023-03-27T13:38:52.903Z,25.58
2023-03-27T13:40:54.735Z,25.78
2023-03-27T13:43:07.160Z,25.84
2023-03-27T13:45:20.852Z,25.75
2023-03-27T13:47:25.679Z,26.70
2023-03-27T13:49:34.287Z,26.27
2023-03-27T13:51:38.918Z,25.71
2023-03-27T13:53:51.167Z,25.73
2023-03-27T13:56:24.568Z,26.84
2023-03-27T13:58:49.363Z,26.76
2023-03-27T14:01:22.799Z,26.48
2023-03-27T14:03:46.295Z,26.82
2023-03-27T14:06:13.240Z,26.75
2023-03-27T14:08:36.772Z,26.59
2023-03-27T14:10:47.098Z,26.66
2023-03-27T14:13:18.250Z,25.99
2023-03-27T14:15:45.082Z,26.01
2023-03-27T14:18:25.848Z,25.78
2023-03-27T14:20:40.209Z,25.67
2023-03-27T14:23:17.610Z,25.78
2023-03-27T14:25:23.790Z,25.58
2023-03-27T14:27:26.596Z,25.38
2023-03-27T14:29:29.144Z,25.04
2023-03-27T14:31:35.900Z,24.67
2023-03-27T14:33:39.283Z,25.09
2023-03-27T14:35:46.670Z,24.15
2023-03-27T14:37:55.935Z,24.86
2023-03-27T14:40:00.960Z,24.23
2023-03-27T14:42:03.595Z,25.22
2023-03-27T14:44:05.292Z,24.09
2023-03-27T14:46:08.100Z,24.09
2023-03-27T14:48:19.695Z,24.29
2023-03-27T14:50:23.315Z,23.86
2023-03-27T14:52:32.293Z,23.66
2023-03-27T14:54:44.648Z,24.14
2023-03-27T14:56:57.496Z,25.49
2023-03-27T14:59:02.177Z,24.88
2023-03-27T15:01:05.366Z,24.77
2023-03-27T15:03:16.636Z,24.26
2023-03-27T15:05:22.137Z,23.80
2023-03-27T15:07:30.666Z,24.49
2023-03-27T15:09:33.110Z,24.48
2023-03-27T15:11:39.078Z,24.36
2023-03-27T15:13:41.117Z,25.06
2023-03-27T15:15:50.699Z,23.96
2023-03-27T15:18:02.956Z,23.42
2023-03-27T15:20:14.525Z,23.38
2023-03-27T15:22:30.165Z,24.18
2023-03-27T15:24:43.245Z,23.25
2023-03-27T15:26:48.242Z,23.24
2023-03-27T15:29:04.217Z,23.53
2023-03-27T15:31:07.559Z,24.02
2023-03-27T15:33:22.072Z,23.74
2023-03-27T15:35:27.153Z,25.07
2023-03-27T15:37:40.664Z,24.98
2023-03-27T15:40:09.484Z,24.66
2023-03-27T15:42:14.219Z,25.33
2023-03-27T15:44:18.608Z,26.52
2023-03-27T15:46:26.732Z,25.51
2023-03-27T15:48:38.106Z,25.57
2023-03-27T15:50:39.962Z,25.26
2023-03-27T15:52:52.945Z,25.76
2023-03-27T15:54:56.171Z,25.22
2023-03-27T15:57:09.259Z,25.04
2023-03-27T15:59:15.401Z,25.80
2023-03-27T16:01:23.400Z,25.89
2023-03-27T16:03:27.629Z,26.30
2023-03-27T16:05:29.661Z,27.15
2023-03-27T16:07:42.541Z,27.60
2023-03-27T16:09:49.544Z,27.07
2023-03-27T16:11:54.312Z,26.73
2023-03-27T16:13:56.219Z,25.98
2023-03-27T16:16:01.547Z,26.45
2023-03-27T16:18:19.605Z,26.66
2023-03-27T16:20:24.465Z,26.58
2023-03-27T16:22:32.323Z,26.02
2023-03-27T16:24:34.089Z,25.45
2023-03-27T16:26:36.207Z,25.89
2023-03-27T16:28:37.963Z,25.47
2023-03-27T16:30:41.474Z,26.19
2023-03-27T16:32:43.271Z,25.92
2023-03-27T16:34:47.789Z,25.54
2023-03-27T16:36:49.823Z,25.55
2023-03-27T16:38:51.641Z,25.79
2023-03-27T16:40:53.348Z,26.11
2023-03-27T16:42:55.341Z,26.61
2023-03-27T16:44:57.327Z,26.53
2023-03-27T16:46:59.045Z,26.20
2023-03-27T16:49:00.933Z,26.37
2023-03-27T16:51:02.608Z,26.13
2023-03-27T16:53:04.321Z,26.42
2023-03-27T16:55:07.718Z,26.93
2023-03-27T16:57:10.537Z,26.28
2023-03-27T16:59:12.225Z,26.53
2023-03-27T17:01:14.005Z,26.83
2023-03-27T17:03:16.462Z,26.47
2023-03-27T17:05:18.383Z,26.31
2023-03-27T17:07:20.308Z,26.49
2023-03-27T17:09:22.784Z,26.50
2023-03-27T17:11:24.794Z,26.86
2023-03-27T17:13:26.867Z,27.12
2023-03-27T17:15:28.564Z,27.37
2023-03-27T17:17:30.650Z,26.93
2023-03-27T17:19:32.502Z,27.26
2023-03-27T17:21:34.228Z,26.95
2023-03-27T17:23:36.430Z,26.87
2023-03-27T17:25:38.139Z,26.97
2023-03-27T17:27:40.135Z,27.72
2023-03-27T17:29:42.215Z,27.62
2023-03-27T17:31:43.965Z,27.71
2023-03-27T17:33:45.864Z,27.76
2023-03-27T17:35:47.534Z,28.42
2023-03-27T17:37:49.906Z,28.06
2023-03-27T17:39:51.791Z,28.34
2023-03-27T17:41:53.627Z,28.17
2023-03-27T17:43:55.362Z,27.67
2023-03-27T17:45:57.342Z,28.28
2023-03-27T17:47:59.331Z,27.38
2023-03-27T17:50:01.140Z,27.76
2023-03-27T17:52:11.185Z,27.43
2023-03-27T17:54:13.188Z,27.06
2023-03-27T17:56:15.438Z,27.62
2023-03-27T17:58:21.367Z,28.55
2023-03-27T18:00:25.559Z,28.31
2023-03-27T18:02:27.331Z,28.29
2023-03-27T18:04:29.379Z,28.14
2023-03-27T18:06:31.154Z,28.16
2023-03-27T18:08:34.266Z,28.31
2023-03-27T18:10:36.409Z,28.60
2023-03-27T18:12:38.681Z,29.46
2023-03-27T18:14:43.224Z,29.26
2023-03-27T18:16:45.383Z,28.80
2023-03-27T18:18:48.412Z,28.89
2023-03-27T18:20:56.996Z,28.68
2023-03-27T18:22:59.329Z,29.32
2023-03-27T18:25:01.469Z,29.05
2023-03-27T18:27:04.101Z,29.00
2023-03-27T18:29:07.020Z,30.01
2023-03-27T18:31:12.036Z,29.64
2023-03-27T18:33:14.195Z,29.78
2023-03-27T18:35:18.746Z,29.38
2023-03-27T18:37:20.982Z,29.57
2023-03-27T18:39:23.042Z,29.45
2023-03-27T18:41:25.138Z,29.60
2023-03-27T18:43:27.416Z,30.15
2023-03-27T18:45:29.444Z,29.69
2023-03-27T18:47:31.651Z,30.90
2023-03-27T18:49:33.739Z,31.21
2023-03-27T18:51:35.799Z,31.58
2023-03-27T18:53:37.756Z,32.50
2023-03-27T18:55:39.717Z,32.32
2023-03-27T18:57:45.375Z,32.14
2023-03-27T18:59:49.354Z,32.36
2023-03-27T19:01:51.289Z,32.82
2023-03-27T19:03:53.196Z,32.87
2023-03-27T19:05:59.851Z,33.22
2023-03-27T19:08:04.042Z,32.44
2023-03-27T19:10:07.313Z,33.03
2023-03-27T19:12:10.494Z,32.98
2023-03-27T19:14:12.729Z,32.74
2023-03-27T19:16:23.330Z,33.45
2023-03-27T19:18:28.591Z,33.70
2023-03-27T19:20:30.851Z,33.98
2023-03-27T19:22:32.834Z,34.15
2023-03-27T19:24:35.429Z,33.94
2023-03-27T19:26:37.577Z,34.52
2023-03-27T19:28:40.527Z,34.36
2023-03-27T19:30:43.038Z,34.40
2023-03-27T19:32:45.367Z,34.04
2023-03-27T19:34:47.451Z,34.60
2023-03-27T19:36:51.078Z,33.99
2023-03-27T19:38:54.466Z,34.28
2023-03-27T19:40:56.905Z,34.74
2023-03-27T19:42:59.308Z,35.44
2023-03-27T19:45:01.359Z,35.76
2023-03-27T19:47:03.888Z,36.44
2023-03-27T19:49:06.014Z,37.97
2023-03-27T19:51:08.009Z,40.24
2023-03-27T19:53:10.184Z,40.67
2023-03-27T19:55:12.093Z,40.65
2023-03-27T19:57:14.063Z,41.73
2023-03-27T19:59:28.211Z,41.63
2023-03-27T20:01:32.838Z,41.47
2023-03-27T20:03:38.779Z,42.04
2023-03-27T20:05:41.405Z,42.15
2023-03-27T20:07:43.484Z,41.27
2023-03-27T20:09:45.768Z,41.83
2023-03-27T20:11:48.019Z,41.65
2023-03-27T20:13:56.533Z,42.02
2023-03-27T20:15:59.347Z,41.83
2023-03-27T20:18:02.729Z,42.07
2023-03-27T20:20:06.266Z,42.58
2023-03-27T20:22:10.279Z,42.79
2023-03-27T20:24:17.471Z,42.79
2023-03-27T20:26:22.551Z,42.79
2023-03-27T20:28:24.502Z,43.65
2023-03-27T20:30:27.424Z,43.57
2023-03-27T20:32:30.900Z,43.09
2023-03-27T20:34:33.169Z,43.88
2023-03-27T20:36:35.828Z,44.05
2023-03-27T20:38:37.853Z,43.45
2023-03-27T20:40:52.997Z,43.62
2023-03-27T20:43:03.628Z,43.90
2023-03-27T20:45:06.980Z,43.56
2023-03-27T20:47:12.112Z,44.13
2023-03-27T20:49:37.448Z,43.93
2023-03-27T20:51:42.790Z,44.46
2023-03-27T20:53:54.449Z,44.51
2023-03-27T20:56:00.540Z,43.77
2023-03-27T20:58:03.259Z,43.96
2023-03-27T21:00:07.927Z,44.05
2023-03-27T21:02:17.349Z,43.73
2023-03-27T21:04:19.395Z,43.63
2023-03-27T21:06:22.772Z,44.48
2023-03-27T21:08:25.773Z,44.17
2023-03-27T21:10:27.856Z,45.56
2023-03-27T21:12:29.834Z,44.55
2023-03-27T21:14:31.713Z,44.89
2023-03-27T21:16:33.817Z,44.54
2023-03-27T21:18:36.495Z,44.96
2023-03-27T21:20:38.521Z,44.66
2023-03-27T21:22:40.491Z,44.74
2023-03-27T21:24:42.407Z,44.95
2023-03-27T21:26:46.664Z,45.45
2023-03-27T21:28:52.904Z,45.16
2023-03-27T21:30:54.666Z,45.68
2023-03-27T21:32:56.859Z,45.69
2023-03-27T21:34:58.963Z,45.84
2023-03-27T21:37:02.671Z,45.25
2023-03-27T21:39:05.018Z,45.53
2023-03-27T21:41:07.531Z,45.17
2023-03-27T21:43:09.476Z,45.48
2023-03-27T21:45:11.425Z,45.79
2023-03-27T21:47:13.267Z,46.18
2023-03-27T21:49:15.408Z,46.11
2023-03-27T21:51:17.663Z,46.22
2023-03-27T21:53:19.524Z,45.88
2023-03-27T21:55:21.552Z,46.49
2023-03-27T21:57:25.080Z,46.71
2023-03-27T21:59:31.082Z,46.09
2023-03-27T22:01:33.136Z,46.72
2023-03-27T22:03:39.787Z,46.43
2023-03-27T22:05:42.245Z,46.88
2023-03-27T22:07:45.677Z,47.22
2023-03-27T22:09:47.658Z,47.11
2023-03-27T22:11:49.606Z,47.74
2023-03-27T22:13:57.378Z,47.85
2023-03-27T22:16:03.174Z,47.33
2023-03-27T22:18:08.979Z,47.21
2023-03-27T22:20:11.632Z,47.89
2023-03-27T22:22:13.484Z,48.48
2023-03-27T22:24:15.479Z,48.31
2023-03-27T22:26:19.177Z,48.00
2023-03-27T22:28:24.690Z,48.26
2023-03-27T22:30:27.812Z,48.11
2023-03-27T22:32:30.137Z,48.58
2023-03-27T22:34:32.085Z,48.92
2023-03-27T22:36:38.427Z,49.05
2023-03-27T22:38:41.679Z,48.91
2023-03-27T22:40:44.388Z,49.05
2023-03-27T22:42:46.172Z,49.21
2023-03-27T22:44:47.958Z,48.97
2023-03-27T22:46:49.906Z,48.99
2023-03-27T22:48:58.721Z,49.07
2023-03-27T22:51:01.264Z,49.84
2023-03-27T22:53:03.233Z,49.47
2023-03-27T22:55:05.441Z,48.92
2023-03-27T22:57:07.505Z,48.97
2023-03-27T22:59:09.340Z,48.80
2023-03-27T23:01:11.349Z,48.45
2023-03-27T23:03:13.544Z,49.09
2023-03-27T23:05:15.660Z,49.38
2023-03-27T23:07:17.350Z,49.15
2023-03-27T23:09:19.245Z,48.92
2023-03-27T23:11:21.223Z,49.06
2023-03-27T23:13:23.871Z,49.16
2023-03-27T23:15:30.160Z,49.75
2023-03-27T23:17:32.272Z,49.88
2023-03-27T23:19:34.104Z,49.81
2023-03-27T23:21:36.079Z,49.51
2023-03-27T23:23:39.376Z,49.64
2023-03-27T23:25:42.490Z,49.44
2023-03-27T23:27:44.367Z,49.16
2023-03-27T23:29:48.076Z,49.93
2023-03-27T23:31:49.912Z,49.36
2023-03-27T23:33:51.789Z,49.32
2023-03-27T23:35:59.972Z,50.17
2023-03-27T23:38:02.104Z,50.06
2023-03-27T23:40:04.897Z,49.65
2023-03-27T23:42:06.679Z,49.63
2023-03-27T23:44:08.441Z,49.27
2023-03-27T23:46:15.973Z,49.62
2023-03-27T23:48:18.032Z,49.05
2023-03-27T23:50:19.737Z,49.17
2023-03-27T23:52:21.424Z,49.42
2023-03-27T23:54:23.276Z,48.85
2023-03-27T23:56:24.928Z,49.26
2023-03-27T23:58:28.857Z,49.30
